sensor_id;sensor_type;location;lat;lon;timestamp;P1;durP1;ratioP1;P2;durP2;ratioP2
7539;SDS011;3811;49.006;12.076;2023-02-05T00:01:25;3.33;;;3.03;;
7539;SDS011;3811;49.006;12.076;2023-02-05T00:03:52;5.07;;;3.30;;
7539;SDS011;3811;49.006;12.076;2023-02-05T00:06:20;5.95;;;3.35;;
7539;SDS011;3811;49.006;12.076;2023-02-05T00:08:47;6.43;;;3.38;;
7539;SDS011;3811;49.006;12.076;2023-02-05T00:11:16;4.18;;;3.35;;
7539;SDS011;3811;49.006;12.076;2023-02-05T00:13:43;6.40;;;3.30;;
7539;SDS011;3811;49.006;12.076;2023-02-05T00:16:11;5.95;;;4.20;;
7539;SDS011;3811;49.006;12.076;2023-02-05T00:18:39;6.55;;;4.07;;
7539;SDS011;3811;49.006;12.076;2023-02-05T00:21:06;3.55;;;3.15;;
7539;SDS011;3811;49.006;12.076;2023-02-05T00:23:35;3.80;;;3.25;;
7539;SDS011;3811;49.006;12.076;2023-02-05T00:26:03;4.25;;;3.85;;
7539;SDS011;3811;49.006;12.076;2023-02-05T00:28:32;4.65;;;3.30;;
7539;SDS011;3811;49.006;12.076;2023-02-05T00:30:59;5.13;;;3.38;;
7539;SDS011;3811;49.006;12.076;2023-02-05T00:33:27;5.30;;;3.50;;
7539;SDS011;3811;49.006;12.076;2023-02-05T00:35:54;4.55;;;3.75;;
7539;SDS011;3811;49.006;12.076;2023-02-05T00:38:22;5.07;;;3.80;;
7539;SDS011;3811;49.006;12.076;2023-02-05T00:40:49;6.05;;;4.07;;
7539;SDS011;3811;49.006;12.076;2023-02-05T00:43:16;4.95;;;3.85;;
7539;SDS011;3811;49.006;12.076;2023-02-05T00:45:45;6.32;;;4.30;;
7539;SDS011;3811;49.006;12.076;2023-02-05T00:48:12;5.00;;;3.60;;
7539;SDS011;3811;49.006;12.076;2023-02-05T00:50:40;7.18;;;4.20;;
7539;SDS011;3811;49.006;12.076;2023-02-05T00:53:07;5.90;;;4.60;;
7539;SDS011;3811;49.006;12.076;2023-02-05T00:55:34;7.55;;;4.28;;
7539;SDS011;3811;49.006;12.076;2023-02-05T00:58:01;6.65;;;4.65;;
7539;SDS011;3811;49.006;12.076;2023-02-05T01:00:29;6.70;;;4.90;;
7539;SDS011;3811;49.006;12.076;2023-02-05T01:03:00;8.00;;;4.50;;
7539;SDS011;3811;49.006;12.076;2023-02-05T01:05:27;5.47;;;4.10;;
7539;SDS011;3811;49.006;12.076;2023-02-05T01:07:55;5.30;;;3.78;;
7539;SDS011;3811;49.006;12.076;2023-02-05T01:10:22;8.32;;;4.78;;
7539;SDS011;3811;49.006;12.076;2023-02-05T01:12:50;6.18;;;4.55;;
7539;SDS011;3811;49.006;12.076;2023-02-05T01:15:17;6.68;;;4.82;;
7539;SDS011;3811;49.006;12.076;2023-02-05T01:17:45;6.05;;;4.03;;
7539;SDS011;3811;49.006;12.076;2023-02-05T01:20:14;7.15;;;4.72;;
7539;SDS011;3811;49.006;12.076;2023-02-05T01:22:42;8.57;;;4.93;;
7539;SDS011;3811;49.006;12.076;2023-02-05T01:25:09;7.43;;;5.13;;
7539;SDS011;3811;49.006;12.076;2023-02-05T01:27:37;4.82;;;4.22;;
7539;SDS011;3811;49.006;12.076;2023-02-05T01:30:06;6.85;;;4.35;;
7539;SDS011;3811;49.006;12.076;2023-02-05T01:32:35;4.35;;;3.97;;
7539;SDS011;3811;49.006;12.076;2023-02-05T01:35:03;5.38;;;3.38;;
7539;SDS011;3811;49.006;12.076;2023-02-05T01:37:32;5.57;;;3.78;;
7539;SDS011;3811;49.006;12.076;2023-02-05T01:39:59;6.07;;;3.53;;
7539;SDS011;3811;49.006;12.076;2023-02-05T01:42:28;4.75;;;3.80;;
7539;SDS011;3811;49.006;12.076;2023-02-05T01:47:42;6.30;;;3.60;;
7539;SDS011;3811;49.006;12.076;2023-02-05T01:50:09;4.45;;;3.38;;
7539;SDS011;3811;49.006;12.076;2023-02-05T01:52:38;6.60;;;3.55;;
7539;SDS011;3811;49.006;12.076;2023-02-05T01:55:06;4.07;;;3.33;;
7539;SDS011;3811;49.006;12.076;2023-02-05T01:57:34;4.53;;;3.38;;
7539;SDS011;3811;49.006;12.076;2023-02-05T02:00:03;5.05;;;3.40;;
7539;SDS011;3811;49.006;12.076;2023-02-05T02:02:40;3.58;;;3.00;;
7539;SDS011;3811;49.006;12.076;2023-02-05T02:05:09;4.97;;;4.25;;
7539;SDS011;3811;49.006;12.076;2023-02-05T02:07:39;4.30;;;3.53;;
7539;SDS011;3811;49.006;12.076;2023-02-05T02:10:06;4.22;;;3.60;;
7539;SDS011;3811;49.006;12.076;2023-02-05T02:12:36;4.65;;;3.53;;
7539;SDS011;3811;49.006;12.076;2023-02-05T02:15:07;4.40;;;3.13;;
7539;SDS011;3811;49.006;12.076;2023-02-05T02:17:36;4.20;;;3.17;;
7539;SDS011;3811;49.006;12.076;2023-02-05T02:20:05;3.75;;;3.08;;
7539;SDS011;3811;49.006;12.076;2023-02-05T02:22:39;3.63;;;3.22;;
7539;SDS011;3811;49.006;12.076;2023-02-05T02:27:56;4.63;;;3.63;;
7539;SDS011;3811;49.006;12.076;2023-02-05T02:30:25;4.53;;;3.67;;
7539;SDS011;3811;49.006;12.076;2023-02-05T02:33:00;4.13;;;3.08;;
7539;SDS011;3811;49.006;12.076;2023-02-05T02:35:31;3.90;;;3.10;;
7539;SDS011;3811;49.006;12.076;2023-02-05T02:38:03;3.85;;;2.67;;
7539;SDS011;3811;49.006;12.076;2023-02-05T02:40:35;3.30;;;3.00;;
7539;SDS011;3811;49.006;12.076;2023-02-05T02:43:07;3.95;;;3.15;;
7539;SDS011;3811;49.006;12.076;2023-02-05T02:45:37;4.68;;;3.40;;
7539;SDS011;3811;49.006;12.076;2023-02-05T02:48:10;7.53;;;3.50;;
7539;SDS011;3811;49.006;12.076;2023-02-05T02:50:39;3.60;;;3.10;;
7539;SDS011;3811;49.006;12.076;2023-02-05T02:53:11;6.72;;;3.10;;
7539;SDS011;3811;49.006;12.076;2023-02-05T02:55:42;4.07;;;3.35;;
7539;SDS011;3811;49.006;12.076;2023-02-05T02:58:14;5.07;;;3.60;;
7539;SDS011;3811;49.006;12.076;2023-02-05T03:00:43;4.10;;;3.17;;
7539;SDS011;3811;49.006;12.076;2023-02-05T03:03:12;8.90;;;3.38;;
7539;SDS011;3811;49.006;12.076;2023-02-05T03:05:43;4.10;;;3.20;;
7539;SDS011;3811;49.006;12.076;2023-02-05T03:08:14;3.90;;;2.53;;
7539;SDS011;3811;49.006;12.076;2023-02-05T03:10:45;5.75;;;3.45;;
7539;SDS011;3811;49.006;12.076;2023-02-05T03:13:14;4.28;;;3.33;;
7539;SDS011;3811;49.006;12.076;2023-02-05T03:15:48;3.42;;;2.92;;
7539;SDS011;3811;49.006;12.076;2023-02-05T03:18:16;6.53;;;3.53;;
7539;SDS011;3811;49.006;12.076;2023-02-05T03:20:47;4.47;;;3.42;;
7539;SDS011;3811;49.006;12.076;2023-02-05T03:23:16;5.63;;;3.70;;
7539;SDS011;3811;49.006;12.076;2023-02-05T03:25:44;4.63;;;4.22;;
7539;SDS011;3811;49.006;12.076;2023-02-05T03:28:12;4.45;;;3.42;;
7539;SDS011;3811;49.006;12.076;2023-02-05T03:30:46;6.32;;;3.88;;
7539;SDS011;3811;49.006;12.076;2023-02-05T03:33:21;3.50;;;3.05;;
7539;SDS011;3811;49.006;12.076;2023-02-05T03:35:52;5.63;;;3.85;;
7539;SDS011;3811;49.006;12.076;2023-02-05T03:38:31;4.07;;;3.63;;
7539;SDS011;3811;49.006;12.076;2023-02-05T03:41:02;6.85;;;4.30;;
7539;SDS011;3811;49.006;12.076;2023-02-05T03:43:42;4.18;;;3.25;;
7539;SDS011;3811;49.006;12.076;2023-02-05T03:46:18;5.20;;;3.22;;
7539;SDS011;3811;49.006;12.076;2023-02-05T03:48:54;3.95;;;2.90;;
7539;SDS011;3811;49.006;12.076;2023-02-05T03:51:24;4.05;;;3.38;;
7539;SDS011;3811;49.006;12.076;2023-02-05T03:53:59;4.15;;;3.42;;
7539;SDS011;3811;49.006;12.076;2023-02-05T03:56:31;5.93;;;4.00;;
7539;SDS011;3811;49.006;12.076;2023-02-05T03:59:03;4.65;;;4.15;;
7539;SDS011;3811;49.006;12.076;2023-02-05T04:01:32;6.15;;;3.78;;
7539;SDS011;3811;49.006;12.076;2023-02-05T04:04:01;6.57;;;4.50;;
7539;SDS011;3811;49.006;12.076;2023-02-05T04:06:28;3.30;;;3.03;;
7539;SDS011;3811;49.006;12.076;2023-02-05T04:08:55;3.60;;;3.28;;
7539;SDS011;3811;49.006;12.076;2023-02-05T04:11:23;5.22;;;3.28;;
7539;SDS011;3811;49.006;12.076;2023-02-05T04:13:51;5.45;;;3.85;;
7539;SDS011;3811;49.006;12.076;2023-02-05T04:16:20;3.97;;;3.58;;
7539;SDS011;3811;49.006;12.076;2023-02-05T04:18:48;3.80;;;3.50;;
7539;SDS011;3811;49.006;12.076;2023-02-05T04:21:17;3.65;;;3.22;;
7539;SDS011;3811;49.006;12.076;2023-02-05T04:23:44;5.32;;;3.55;;
7539;SDS011;3811;49.006;12.076;2023-02-05T04:26:11;5.45;;;3.60;;
7539;SDS011;3811;49.006;12.076;2023-02-05T04:28:46;4.15;;;3.30;;
7539;SDS011;3811;49.006;12.076;2023-02-05T04:31:13;5.03;;;3.85;;
7539;SDS011;3811;49.006;12.076;2023-02-05T04:33:42;4.88;;;3.40;;
7539;SDS011;3811;49.006;12.076;2023-02-05T04:36:13;4.22;;;3.55;;
7539;SDS011;3811;49.006;12.076;2023-02-05T04:38:40;4.47;;;3.25;;
7539;SDS011;3811;49.006;12.076;2023-02-05T04:41:08;4.18;;;3.28;;
7539;SDS011;3811;49.006;12.076;2023-02-05T04:43:35;3.90;;;3.10;;
7539;SDS011;3811;49.006;12.076;2023-02-05T04:46:05;8.73;;;3.60;;
7539;SDS011;3811;49.006;12.076;2023-02-05T04:48:33;4.15;;;3.50;;
7539;SDS011;3811;49.006;12.076;2023-02-05T04:51:04;4.32;;;3.42;;
7539;SDS011;3811;49.006;12.076;2023-02-05T04:53:32;4.82;;;3.72;;
7539;SDS011;3811;49.006;12.076;2023-02-05T04:56:03;4.60;;;3.38;;
7539;SDS011;3811;49.006;12.076;2023-02-05T04:58:31;5.10;;;3.35;;
7539;SDS011;3811;49.006;12.076;2023-02-05T05:00:58;5.68;;;3.53;;
7539;SDS011;3811;49.006;12.076;2023-02-05T05:03:27;4.03;;;3.47;;
7539;SDS011;3811;49.006;12.076;2023-02-05T05:05:55;4.30;;;3.33;;
7539;SDS011;3811;49.006;12.076;2023-02-05T05:08:22;4.13;;;3.55;;
7539;SDS011;3811;49.006;12.076;2023-02-05T05:10:51;5.38;;;3.83;;
7539;SDS011;3811;49.006;12.076;2023-02-05T05:13:19;5.40;;;3.38;;
7539;SDS011;3811;49.006;12.076;2023-02-05T05:15:51;5.47;;;4.05;;
7539;SDS011;3811;49.006;12.076;2023-02-05T05:18:19;6.47;;;4.07;;
7539;SDS011;3811;49.006;12.076;2023-02-05T05:20:46;4.95;;;3.85;;
7539;SDS011;3811;49.006;12.076;2023-02-05T05:23:13;6.72;;;3.75;;
7539;SDS011;3811;49.006;12.076;2023-02-05T05:25:41;6.45;;;4.03;;
7539;SDS011;3811;49.006;12.076;2023-02-05T05:28:10;5.78;;;3.53;;
7539;SDS011;3811;49.006;12.076;2023-02-05T05:30:37;6.78;;;4.65;;
7539;SDS011;3811;49.006;12.076;2023-02-05T05:33:05;7.55;;;5.20;;
7539;SDS011;3811;49.006;12.076;2023-02-05T05:35:32;7.30;;;4.47;;
7539;SDS011;3811;49.006;12.076;2023-02-05T05:38:00;5.97;;;3.40;;
7539;SDS011;3811;49.006;12.076;2023-02-05T05:40:27;4.25;;;3.60;;
7539;SDS011;3811;49.006;12.076;2023-02-05T05:43:14;4.72;;;3.20;;
7539;SDS011;3811;49.006;12.076;2023-02-05T05:45:59;4.05;;;3.22;;
7539;SDS011;3811;49.006;12.076;2023-02-05T05:48:26;5.38;;;3.35;;
7539;SDS011;3811;49.006;12.076;2023-02-05T05:50:54;3.33;;;3.03;;
7539;SDS011;3811;49.006;12.076;2023-02-05T05:53:21;3.92;;;2.95;;
7539;SDS011;3811;49.006;12.076;2023-02-05T05:55:48;3.45;;;3.13;;
7539;SDS011;3811;49.006;12.076;2023-02-05T05:58:17;4.80;;;3.63;;
7539;SDS011;3811;49.006;12.076;2023-02-05T06:00:44;3.97;;;3.10;;
7539;SDS011;3811;49.006;12.076;2023-02-05T06:03:12;5.55;;;3.47;;
7539;SDS011;3811;49.006;12.076;2023-02-05T06:05:39;4.55;;;3.75;;
7539;SDS011;3811;49.006;12.076;2023-02-05T06:08:06;6.78;;;4.50;;
7539;SDS011;3811;49.006;12.076;2023-02-05T06:10:34;6.20;;;4.55;;
7539;SDS011;3811;49.006;12.076;2023-02-05T06:13:01;6.45;;;4.57;;
7539;SDS011;3811;49.006;12.076;2023-02-05T06:15:30;5.78;;;4.40;;
7539;SDS011;3811;49.006;12.076;2023-02-05T06:17:58;8.02;;;4.60;;
7539;SDS011;3811;49.006;12.076;2023-02-05T06:20:26;6.00;;;3.95;;
7539;SDS011;3811;49.006;12.076;2023-02-05T06:22:53;4.63;;;3.63;;
7539;SDS011;3811;49.006;12.076;2023-02-05T06:25:20;4.47;;;3.58;;
7539;SDS011;3811;49.006;12.076;2023-02-05T06:27:47;4.07;;;3.55;;
7539;SDS011;3811;49.006;12.076;2023-02-05T06:30:14;7.00;;;3.97;;
7539;SDS011;3811;49.006;12.076;2023-02-05T06:32:43;4.55;;;3.75;;
7539;SDS011;3811;49.006;12.076;2023-02-05T06:35:10;4.75;;;3.72;;
7539;SDS011;3811;49.006;12.076;2023-02-05T06:37:38;5.28;;;4.05;;
7539;SDS011;3811;49.006;12.076;2023-02-05T06:40:05;5.03;;;4.15;;
7539;SDS011;3811;49.006;12.076;2023-02-05T06:42:36;4.47;;;3.85;;
7539;SDS011;3811;49.006;12.076;2023-02-05T06:45:03;8.65;;;3.78;;
7539;SDS011;3811;49.006;12.076;2023-02-05T06:47:31;3.67;;;3.35;;
7539;SDS011;3811;49.006;12.076;2023-02-05T06:49:59;5.53;;;3.65;;
7539;SDS011;3811;49.006;12.076;2023-02-05T06:52:27;5.43;;;3.70;;
7539;SDS011;3811;49.006;12.076;2023-02-05T06:54:54;4.57;;;3.45;;
7539;SDS011;3811;49.006;12.076;2023-02-05T06:57:21;3.67;;;3.15;;
7539;SDS011;3811;49.006;12.076;2023-02-05T06:59:48;3.30;;;3.00;;
7539;SDS011;3811;49.006;12.076;2023-02-05T07:02:16;4.25;;;3.75;;
7539;SDS011;3811;49.006;12.076;2023-02-05T07:04:43;5.93;;;4.07;;
7539;SDS011;3811;49.006;12.076;2023-02-05T07:07:12;7.07;;;3.70;;
7539;SDS011;3811;49.006;12.076;2023-02-05T07:12:15;4.45;;;3.72;;
7539;SDS011;3811;49.006;12.076;2023-02-05T07:14:42;4.63;;;3.40;;
7539;SDS011;3811;49.006;12.076;2023-02-05T07:17:09;3.75;;;3.35;;
7539;SDS011;3811;49.006;12.076;2023-02-05T07:19:37;4.03;;;3.63;;
7539;SDS011;3811;49.006;12.076;2023-02-05T07:22:04;4.18;;;3.78;;
7539;SDS011;3811;49.006;12.076;2023-02-05T07:24:33;4.22;;;3.60;;
7539;SDS011;3811;49.006;12.076;2023-02-05T07:27:00;4.03;;;3.55;;
7539;SDS011;3811;49.006;12.076;2023-02-05T07:29:27;4.05;;;3.55;;
7539;SDS011;3811;49.006;12.076;2023-02-05T07:31:55;5.82;;;4.13;;
7539;SDS011;3811;49.006;12.076;2023-02-05T07:34:22;4.43;;;3.97;;
7539;SDS011;3811;49.006;12.076;2023-02-05T07:36:49;5.15;;;3.70;;
7539;SDS011;3811;49.006;12.076;2023-02-05T07:39:17;4.63;;;3.78;;
7539;SDS011;3811;49.006;12.076;2023-02-05T07:41:45;5.38;;;3.97;;
7539;SDS011;3811;49.006;12.076;2023-02-05T07:44:24;5.45;;;4.10;;
7539;SDS011;3811;49.006;12.076;2023-02-05T07:46:51;5.20;;;4.00;;
7539;SDS011;3811;49.006;12.076;2023-02-05T07:49:18;4.78;;;4.18;;
7539;SDS011;3811;49.006;12.076;2023-02-05T07:51:46;13.68;;;7.05;;
7539;SDS011;3811;49.006;12.076;2023-02-05T07:54:13;9.35;;;4.97;;
7539;SDS011;3811;49.006;12.076;2023-02-05T07:56:40;4.88;;;4.35;;
7539;SDS011;3811;49.006;12.076;2023-02-05T07:59:09;4.88;;;4.20;;
7539;SDS011;3811;49.006;12.076;2023-02-05T08:01:37;5.60;;;4.00;;
7539;SDS011;3811;49.006;12.076;2023-02-05T08:04:05;5.57;;;4.65;;
7539;SDS011;3811;49.006;12.076;2023-02-05T08:06:33;4.50;;;4.00;;
7539;SDS011;3811;49.006;12.076;2023-02-05T08:09:00;6.55;;;4.32;;
7539;SDS011;3811;49.006;12.076;2023-02-05T08:11:28;4.70;;;3.63;;
7539;SDS011;3811;49.006;12.076;2023-02-05T08:13:55;6.13;;;4.13;;
7539;SDS011;3811;49.006;12.076;2023-02-05T08:16:26;5.65;;;4.28;;
7539;SDS011;3811;49.006;12.076;2023-02-05T08:18:53;5.38;;;3.78;;
7539;SDS011;3811;49.006;12.076;2023-02-05T08:21:20;5.68;;;4.70;;
7539;SDS011;3811;49.006;12.076;2023-02-05T08:23:48;6.75;;;4.20;;
7539;SDS011;3811;49.006;12.076;2023-02-05T08:26:15;6.15;;;4.60;;
7539;SDS011;3811;49.006;12.076;2023-02-05T08:28:42;4.82;;;4.22;;
7539;SDS011;3811;49.006;12.076;2023-02-05T08:31:11;7.43;;;4.80;;
7539;SDS011;3811;49.006;12.076;2023-02-05T08:33:43;6.45;;;4.10;;
7539;SDS011;3811;49.006;12.076;2023-02-05T08:36:11;6.50;;;4.30;;
7539;SDS011;3811;49.006;12.076;2023-02-05T08:38:38;5.57;;;5.00;;
7539;SDS011;3811;49.006;12.076;2023-02-05T08:41:06;6.30;;;5.10;;
7539;SDS011;3811;49.006;12.076;2023-02-05T08:43:37;7.77;;;5.13;;
7539;SDS011;3811;49.006;12.076;2023-02-05T08:46:06;6.80;;;4.03;;
7539;SDS011;3811;49.006;12.076;2023-02-05T08:48:34;4.30;;;3.90;;
7539;SDS011;3811;49.006;12.076;2023-02-05T08:51:03;6.40;;;4.53;;
7539;SDS011;3811;49.006;12.076;2023-02-05T08:53:30;4.70;;;3.97;;
7539;SDS011;3811;49.006;12.076;2023-02-05T08:55:58;6.67;;;3.80;;
7539;SDS011;3811;49.006;12.076;2023-02-05T08:58:26;5.67;;;3.80;;
7539;SDS011;3811;49.006;12.076;2023-02-05T09:00:58;5.53;;;3.87;;
7539;SDS011;3811;49.006;12.076;2023-02-05T09:03:27;13.13;;;7.83;;
7539;SDS011;3811;49.006;12.076;2023-02-05T09:05:54;6.10;;;4.83;;
7539;SDS011;3811;49.006;12.076;2023-02-05T09:08:24;6.73;;;5.23;;
7539;SDS011;3811;49.006;12.076;2023-02-05T09:10:51;14.27;;;9.47;;
7539;SDS011;3811;49.006;12.076;2023-02-05T09:13:18;10.47;;;7.80;;
7539;SDS011;3811;49.006;12.076;2023-02-05T09:15:46;5.80;;;4.67;;
7539;SDS011;3811;49.006;12.076;2023-02-05T09:18:14;5.63;;;4.20;;
7539;SDS011;3811;49.006;12.076;2023-02-05T09:20:42;5.90;;;4.83;;
7539;SDS011;3811;49.006;12.076;2023-02-05T09:23:10;5.63;;;4.47;;
7539;SDS011;3811;49.006;12.076;2023-02-05T09:28:25;5.67;;;3.90;;
7539;SDS011;3811;49.006;12.076;2023-02-05T09:30:53;5.10;;;4.60;;
7539;SDS011;3811;49.006;12.076;2023-02-05T09:33:20;4.90;;;4.20;;
7539;SDS011;3811;49.006;12.076;2023-02-05T09:35:47;4.17;;;3.77;;
7539;SDS011;3811;49.006;12.076;2023-02-05T09:38:15;3.83;;;3.53;;
7539;SDS011;3811;49.006;12.076;2023-02-05T09:40:46;4.13;;;3.73;;
7539;SDS011;3811;49.006;12.076;2023-02-05T09:43:23;5.83;;;4.00;;
7539;SDS011;3811;49.006;12.076;2023-02-05T09:45:54;5.70;;;3.97;;
7539;SDS011;3811;49.006;12.076;2023-02-05T09:48:30;4.40;;;4.00;;
7539;SDS011;3811;49.006;12.076;2023-02-05T09:51:01;4.17;;;3.60;;
7539;SDS011;3811;49.006;12.076;2023-02-05T09:53:32;3.73;;;3.43;;
7539;SDS011;3811;49.006;12.076;2023-02-05T09:56:02;4.17;;;3.40;;
7539;SDS011;3811;49.006;12.076;2023-02-05T09:58:34;5.37;;;4.30;;
7539;SDS011;3811;49.006;12.076;2023-02-05T10:01:08;4.40;;;4.07;;
7539;SDS011;3811;49.006;12.076;2023-02-05T10:03:42;5.77;;;3.70;;
7539;SDS011;3811;49.006;12.076;2023-02-05T10:08:42;5.10;;;3.27;;
7539;SDS011;3811;49.006;12.076;2023-02-05T10:11:15;7.93;;;3.53;;
7539;SDS011;3811;49.006;12.076;2023-02-05T10:13:46;3.57;;;2.83;;
7539;SDS011;3811;49.006;12.076;2023-02-05T10:19:30;3.13;;;2.83;;
7539;SDS011;3811;49.006;12.076;2023-02-05T10:22:11;3.60;;;3.33;;
7539;SDS011;3811;49.006;12.076;2023-02-05T10:24:45;3.20;;;3.00;;
7539;SDS011;3811;49.006;12.076;2023-02-05T10:27:18;3.60;;;3.30;;
7539;SDS011;3811;49.006;12.076;2023-02-05T10:30:02;3.90;;;3.60;;
7539;SDS011;3811;49.006;12.076;2023-02-05T10:32:33;3.37;;;3.07;;
7539;SDS011;3811;49.006;12.076;2023-02-05T10:35:07;8.53;;;6.90;;
7539;SDS011;3811;49.006;12.076;2023-02-05T10:37:46;4.20;;;3.57;;
7539;SDS011;3811;49.006;12.076;2023-02-05T10:40:16;3.57;;;2.93;;
7539;SDS011;3811;49.006;12.076;2023-02-05T10:42:45;4.67;;;4.10;;
7539;SDS011;3811;49.006;12.076;2023-02-05T10:45:22;5.90;;;4.03;;
7539;SDS011;3811;49.006;12.076;2023-02-05T10:47:58;5.43;;;3.80;;
7539;SDS011;3811;49.006;12.076;2023-02-05T10:50:27;4.40;;;3.47;;
7539;SDS011;3811;49.006;12.076;2023-02-05T10:52:56;4.27;;;3.17;;
7539;SDS011;3811;49.006;12.076;2023-02-05T10:55:25;3.63;;;3.33;;
7539;SDS011;3811;49.006;12.076;2023-02-05T10:57:52;3.33;;;3.03;;
7539;SDS011;3811;49.006;12.076;2023-02-05T11:02:53;8.30;;;3.73;;
7539;SDS011;3811;49.006;12.076;2023-02-05T11:05:23;3.93;;;3.30;;
7539;SDS011;3811;49.006;12.076;2023-02-05T11:07:55;4.87;;;4.37;;
7539;SDS011;3811;49.006;12.076;2023-02-05T11:10:24;4.60;;;3.73;;
7539;SDS011;3811;49.006;12.076;2023-02-05T11:12:53;3.23;;;3.00;;
7539;SDS011;3811;49.006;12.076;2023-02-05T11:15:23;3.70;;;3.17;;
7539;SDS011;3811;49.006;12.076;2023-02-05T11:17:51;3.70;;;3.30;;
7539;SDS011;3811;49.006;12.076;2023-02-05T11:20:26;3.90;;;3.37;;
7539;SDS011;3811;49.006;12.076;2023-02-05T11:23:13;4.80;;;3.53;;
7539;SDS011;3811;49.006;12.076;2023-02-05T11:25:48;6.83;;;3.10;;
7539;SDS011;3811;49.006;12.076;2023-02-05T11:28:20;3.87;;;3.03;;
7539;SDS011;3811;49.006;12.076;2023-02-05T11:30:49;5.33;;;3.83;;
7539;SDS011;3811;49.006;12.076;2023-02-05T11:33:17;3.83;;;3.33;;
7539;SDS011;3811;49.006;12.076;2023-02-05T11:35:52;3.63;;;3.23;;
7539;SDS011;3811;49.006;12.076;2023-02-05T11:38:23;3.37;;;3.10;;
7539;SDS011;3811;49.006;12.076;2023-02-05T11:40:54;3.63;;;3.33;;
7539;SDS011;3811;49.006;12.076;2023-02-05T11:43:24;3.83;;;3.27;;
7539;SDS011;3811;49.006;12.076;2023-02-05T11:45:54;3.43;;;3.13;;
7539;SDS011;3811;49.006;12.076;2023-02-05T11:48:27;4.00;;;3.60;;
7539;SDS011;3811;49.006;12.076;2023-02-05T11:50:58;5.00;;;3.83;;
7539;SDS011;3811;49.006;12.076;2023-02-05T11:53:26;3.27;;;2.97;;
7539;SDS011;3811;49.006;12.076;2023-02-05T11:55:54;4.10;;;3.70;;
7539;SDS011;3811;49.006;12.076;2023-02-05T11:58:24;4.20;;;3.57;;
7539;SDS011;3811;49.006;12.076;2023-02-05T12:00:53;4.00;;;3.60;;
7539;SDS011;3811;49.006;12.076;2023-02-05T12:05:57;3.50;;;3.20;;
7539;SDS011;3811;49.006;12.076;2023-02-05T12:08:40;4.30;;;3.20;;
7539;SDS011;3811;49.006;12.076;2023-02-05T12:13:56;4.40;;;3.10;;
7539;SDS011;3811;49.006;12.076;2023-02-05T12:16:33;3.80;;;3.33;;
7539;SDS011;3811;49.006;12.076;2023-02-05T12:19:16;4.00;;;3.57;;
7539;SDS011;3811;49.006;12.076;2023-02-05T12:21:46;4.00;;;2.90;;
7539;SDS011;3811;49.006;12.076;2023-02-05T12:24:23;3.60;;;2.67;;
7539;SDS011;3811;49.006;12.076;2023-02-05T12:27:00;3.20;;;2.90;;
7539;SDS011;3811;49.006;12.076;2023-02-05T12:29:36;3.00;;;2.80;;
7539;SDS011;3811;49.006;12.076;2023-02-05T12:32:09;3.83;;;2.80;;
7539;SDS011;3811;49.006;12.076;2023-02-05T12:34:45;2.87;;;2.67;;
7539;SDS011;3811;49.006;12.076;2023-02-05T12:37:31;3.60;;;3.20;;
7539;SDS011;3811;49.006;12.076;2023-02-05T12:40:02;5.77;;;3.73;;
7539;SDS011;3811;49.006;12.076;2023-02-05T12:42:31;3.57;;;2.73;;
7539;SDS011;3811;49.006;12.076;2023-02-05T12:45:06;3.47;;;3.10;;
7539;SDS011;3811;49.006;12.076;2023-02-05T12:47:39;3.27;;;2.90;;
7539;SDS011;3811;49.006;12.076;2023-02-05T12:50:11;3.77;;;3.20;;
7539;SDS011;3811;49.006;12.076;2023-02-05T12:52:44;6.43;;;3.03;;
7539;SDS011;3811;49.006;12.076;2023-02-05T12:55:20;3.00;;;2.80;;
7539;SDS011;3811;49.006;12.076;2023-02-05T12:57:50;3.67;;;2.63;;
7539;SDS011;3811;49.006;12.076;2023-02-05T13:00:20;3.80;;;3.40;;
7539;SDS011;3811;49.006;12.076;2023-02-05T13:02:51;3.50;;;2.47;;
7539;SDS011;3811;49.006;12.076;2023-02-05T13:05:20;3.40;;;3.13;;
7539;SDS011;3811;49.006;12.076;2023-02-05T13:07:59;5.07;;;4.57;;
7539;SDS011;3811;49.006;12.076;2023-02-05T13:10:33;3.90;;;3.60;;
7539;SDS011;3811;49.006;12.076;2023-02-05T13:13:04;3.87;;;3.57;;
7539;SDS011;3811;49.006;12.076;2023-02-05T13:15:34;4.40;;;3.90;;
7539;SDS011;3811;49.006;12.076;2023-02-05T13:18:04;2.90;;;2.70;;
7539;SDS011;3811;49.006;12.076;2023-02-05T13:20:34;4.47;;;3.13;;
7539;SDS011;3811;49.006;12.076;2023-02-05T13:23:34;3.40;;;3.10;;
7539;SDS011;3811;49.006;12.076;2023-02-05T13:26:24;4.40;;;3.23;;
7539;SDS011;3811;49.006;12.076;2023-02-05T13:29:11;3.40;;;3.10;;
7539;SDS011;3811;49.006;12.076;2023-02-05T13:31:41;3.80;;;3.30;;
7539;SDS011;3811;49.006;12.076;2023-02-05T13:34:13;3.40;;;3.10;;
7539;SDS011;3811;49.006;12.076;2023-02-05T13:36:52;4.90;;;2.77;;
7539;SDS011;3811;49.006;12.076;2023-02-05T13:39:49;3.47;;;3.17;;
7539;SDS011;3811;49.006;12.076;2023-02-05T13:42:27;4.27;;;3.13;;
7539;SDS011;3811;49.006;12.076;2023-02-05T13:45:12;5.10;;;4.20;;
7539;SDS011;3811;49.006;12.076;2023-02-05T13:47:48;3.40;;;3.10;;
7539;SDS011;3811;49.006;12.076;2023-02-05T13:53:25;5.00;;;3.30;;
7539;SDS011;3811;49.006;12.076;2023-02-05T13:56:09;5.23;;;4.50;;
7539;SDS011;3811;49.006;12.076;2023-02-05T13:58:43;4.93;;;4.43;;
7539;SDS011;3811;49.006;12.076;2023-02-05T14:01:13;3.47;;;3.17;;
7539;SDS011;3811;49.006;12.076;2023-02-05T14:03:43;7.43;;;4.10;;
7539;SDS011;3811;49.006;12.076;2023-02-05T14:06:20;4.17;;;3.87;;
7539;SDS011;3811;49.006;12.076;2023-02-05T14:08:49;6.03;;;5.10;;
7539;SDS011;3811;49.006;12.076;2023-02-05T14:11:17;6.70;;;4.80;;
7539;SDS011;3811;49.006;12.076;2023-02-05T14:16:38;4.83;;;4.43;;
7539;SDS011;3811;49.006;12.076;2023-02-05T14:19:13;4.67;;;3.30;;
7539;SDS011;3811;49.006;12.076;2023-02-05T14:21:48;4.00;;;3.70;;
7539;SDS011;3811;49.006;12.076;2023-02-05T14:24:26;3.27;;;3.03;;
7539;SDS011;3811;49.006;12.076;2023-02-05T14:26:54;5.33;;;3.73;;
7539;SDS011;3811;49.006;12.076;2023-02-05T14:29:37;3.23;;;2.93;;
7539;SDS011;3811;49.006;12.076;2023-02-05T14:32:06;4.77;;;4.37;;
7539;SDS011;3811;49.006;12.076;2023-02-05T14:34:43;5.70;;;4.00;;
7539;SDS011;3811;49.006;12.076;2023-02-05T14:37:31;3.77;;;3.40;;
7539;SDS011;3811;49.006;12.076;2023-02-05T14:40:10;6.17;;;3.50;;
7539;SDS011;3811;49.006;12.076;2023-02-05T14:42:38;3.87;;;3.43;;
7539;SDS011;3811;49.006;12.076;2023-02-05T14:45:05;6.47;;;3.03;;
7539;SDS011;3811;49.006;12.076;2023-02-05T14:47:34;5.97;;;3.67;;
7539;SDS011;3811;49.006;12.076;2023-02-05T14:50:04;4.07;;;3.67;;
7539;SDS011;3811;49.006;12.076;2023-02-05T14:52:32;4.77;;;3.60;;
7539;SDS011;3811;49.006;12.076;2023-02-05T14:55:04;2.97;;;2.77;;
7539;SDS011;3811;49.006;12.076;2023-02-05T14:57:37;2.93;;;2.70;;
7539;SDS011;3811;49.006;12.076;2023-02-05T15:00:18;2.63;;;2.20;;
7539;SDS011;3811;49.006;12.076;2023-02-05T15:03:04;3.10;;;2.80;;
7539;SDS011;3811;49.006;12.076;2023-02-05T15:05:46;4.80;;;3.70;;
7539;SDS011;3811;49.006;12.076;2023-02-05T15:08:20;5.63;;;5.13;;
7539;SDS011;3811;49.006;12.076;2023-02-05T15:10:50;8.47;;;4.47;;
7539;SDS011;3811;49.006;12.076;2023-02-05T15:13:22;5.20;;;4.70;;
7539;SDS011;3811;49.006;12.076;2023-02-05T15:16:07;5.00;;;3.67;;
7539;SDS011;3811;49.006;12.076;2023-02-05T15:18:38;7.07;;;5.70;;
7539;SDS011;3811;49.006;12.076;2023-02-05T15:21:09;7.50;;;4.33;;
7539;SDS011;3811;49.006;12.076;2023-02-05T15:23:40;5.53;;;4.50;;
7539;SDS011;3811;49.006;12.076;2023-02-05T15:26:15;6.03;;;4.97;;
7539;SDS011;3811;49.006;12.076;2023-02-05T15:28:46;6.40;;;4.93;;
7539;SDS011;3811;49.006;12.076;2023-02-05T15:31:19;5.63;;;4.97;;
7539;SDS011;3811;49.006;12.076;2023-02-05T15:33:57;6.73;;;5.23;;
7539;SDS011;3811;49.006;12.076;2023-02-05T15:36:29;6.40;;;5.57;;
7539;SDS011;3811;49.006;12.076;2023-02-05T15:39:06;7.13;;;5.80;;
7539;SDS011;3811;49.006;12.076;2023-02-05T15:41:35;8.67;;;5.90;;
7539;SDS011;3811;49.006;12.076;2023-02-05T15:44:03;6.57;;;5.20;;
7539;SDS011;3811;49.006;12.076;2023-02-05T15:46:31;6.77;;;5.43;;
7539;SDS011;3811;49.006;12.076;2023-02-05T15:49:00;5.53;;;4.47;;
7539;SDS011;3811;49.006;12.076;2023-02-05T15:51:28;6.93;;;5.40;;